Wiarton Airport
CYVV : now visible

Airfield :











YOU CAN JOIN US ON...

 
LOGIN :

Register | Disclaimer

   EN    FR    IT 

 









Legend :    VFR   Marginal VFR   IFR   Intensive IFR   Very Intensive IFR
Visi :
Ceiling :
>= 8 km
>= 3000ft
5 to 8 km
1000 to 3000 ft
1500m to 5 km
500 to 1000 ft
800 to 1500m
200 to 500 ft
< 800m
< 200 ft
Symbols :   Thunderstorms  Fog  Heavy snow  Heavy precipitations  Wind > 20 kt






- Airport Elevation : 729 ft
- IATA code : YVV


CYVV - Wiarton

CURRENT METAR :
  • 100000Z 29014G28KT 15SM BKN013 BKN100 BKN250 02/M01 A2941 RMK SC7AC1CI1 AC TR CI TR SLP968

EXPIRED METARs :
  • 092332Z 29016G28KT 15SM BKN013 BKN100 02/M01 A2941 RMK SC7AC1 AC TR SLP967
  • 092300Z 29015G32KT 270V330 15SM BKN016 BKN250 03/M01 A2940 RMK SC5CI1 SLP966
  • 092200Z 29021G33KT 15SM BKN024 03/M02 A2941 RMK SC6 SLP968

Expired Forecast.



MET'MAP, your aeronautical weather chart ! - Copyright ORBIFLY December 2007 - Disclaimer

ORBIFLY MET'MAP TEAM :

Programming & Development : Alexandra Zaïnal
Concept & original design : Baudouin d'Aumeries
Assistance for programming : Marc-Olivier Méhu
Technical & hardware support : Manuel Goepfert

Contact : metmap@orbifly.com




SOURCES & CREDITS :

   NOAA       Earth
Advisory